sensor_id;sensor_type;location;lat;lon;timestamp;temperature;humidity
18229;DHT22;9239;50.932;3.142;2023-03-14T00:00:06;10.00;99.90
18229;DHT22;9239;50.932;3.142;2023-03-14T00:02:35;10.00;99.90
18229;DHT22;9239;50.932;3.142;2023-03-14T00:05:04;9.90;99.90
18229;DHT22;9239;50.932;3.142;2023-03-14T00:07:33;9.90;99.90
18229;DHT22;9239;50.932;3.142;2023-03-14T00:10:02;9.90;99.90
18229;DHT22;9239;50.932;3.142;2023-03-14T00:12:30;9.90;99.90
18229;DHT22;9239;50.932;3.142;2023-03-14T00:14:57;9.90;99.90
18229;DHT22;9239;50.932;3.142;2023-03-14T00:17:25;9.90;99.90
18229;DHT22;9239;50.932;3.142;2023-03-14T00:19:53;10.00;99.90
18229;DHT22;9239;50.932;3.142;2023-03-14T00:22:21;10.00;99.90
18229;DHT22;9239;50.932;3.142;2023-03-14T00:24:48;10.10;99.90
18229;DHT22;9239;50.932;3.142;2023-03-14T00:27:15;10.10;99.90
18229;DHT22;9239;50.932;3.142;2023-03-14T00:29:42;10.20;99.90
18229;DHT22;9239;50.932;3.142;2023-03-14T00:32:10;10.20;99.90
18229;DHT22;9239;50.932;3.142;2023-03-14T00:34:37;10.30;99.90
18229;DHT22;9239;50.932;3.142;2023-03-14T00:37:04;10.30;99.90
18229;DHT22;9239;50.932;3.142;2023-03-14T00:39:32;10.30;99.90
18229;DHT22;9239;50.932;3.142;2023-03-14T00:41:59;10.20;99.90
18229;DHT22;9239;50.932;3.142;2023-03-14T00:44:26;10.20;99.90
18229;DHT22;9239;50.932;3.142;2023-03-14T00:46:53;10.20;99.90
18229;DHT22;9239;50.932;3.142;2023-03-14T00:49:20;10.20;99.90
18229;DHT22;9239;50.932;3.142;2023-03-14T00:51:46;10.20;99.90
18229;DHT22;9239;50.932;3.142;2023-03-14T00:54:13;10.10;99.90
18229;DHT22;9239;50.932;3.142;2023-03-14T00:56:41;10.10;99.90
18229;DHT22;9239;50.932;3.142;2023-03-14T00:59:08;10.00;99.90
18229;DHT22;9239;50.932;3.142;2023-03-14T01:01:35;10.10;99.90
18229;DHT22;9239;50.932;3.142;2023-03-14T01:04:02;10.00;99.90
18229;DHT22;9239;50.932;3.142;2023-03-14T01:06:29;10.10;99.90
18229;DHT22;9239;50.932;3.142;2023-03-14T01:08:57;10.10;99.90
18229;DHT22;9239;50.932;3.142;2023-03-14T01:11:25;10.20;99.90
18229;DHT22;9239;50.932;3.142;2023-03-14T01:13:54;10.30;99.90
18229;DHT22;9239;50.932;3.142;2023-03-14T01:16:23;10.30;99.90
18229;DHT22;9239;50.932;3.142;2023-03-14T01:18:51;10.30;99.90
18229;DHT22;9239;50.932;3.142;2023-03-14T01:21:20;10.30;99.90
18229;DHT22;9239;50.932;3.142;2023-03-14T01:23:47;10.30;99.90
18229;DHT22;9239;50.932;3.142;2023-03-14T01:26:17;10.30;99.90
18229;DHT22;9239;50.932;3.142;2023-03-14T01:28:45;10.40;99.90
18229;DHT22;9239;50.932;3.142;2023-03-14T01:31:13;10.30;99.90
18229;DHT22;9239;50.932;3.142;2023-03-14T01:33:41;10.40;99.90
18229;DHT22;9239;50.932;3.142;2023-03-14T01:36:09;10.40;99.90
18229;DHT22;9239;50.932;3.142;2023-03-14T01:38:37;10.40;99.90
18229;DHT22;9239;50.932;3.142;2023-03-14T01:41:06;10.40;99.90
18229;DHT22;9239;50.932;3.142;2023-03-14T01:43:33;10.40;99.90
18229;DHT22;9239;50.932;3.142;2023-03-14T01:46:23;10.40;99.90
18229;DHT22;9239;50.932;3.142;2023-03-14T01:48:55;10.40;99.90
18229;DHT22;9239;50.932;3.142;2023-03-14T01:51:27;10.40;99.90
18229;DHT22;9239;50.932;3.142;2023-03-14T01:54:01;10.40;99.90
18229;DHT22;9239;50.932;3.142;2023-03-14T01:56:30;10.40;99.90
18229;DHT22;9239;50.932;3.142;2023-03-14T01:58:59;10.40;99.90
18229;DHT22;9239;50.932;3.142;2023-03-14T02:01:29;10.40;99.90
18229;DHT22;9239;50.932;3.142;2023-03-14T02:03:58;10.40;99.90
18229;DHT22;9239;50.932;3.142;2023-03-14T02:06:31;10.40;99.90
18229;DHT22;9239;50.932;3.142;2023-03-14T02:09:00;10.40;99.90
18229;DHT22;9239;50.932;3.142;2023-03-14T02:11:29;10.40;99.90
18229;DHT22;9239;50.932;3.142;2023-03-14T02:13:58;10.30;99.90
18229;DHT22;9239;50.932;3.142;2023-03-14T02:16:26;10.30;99.90
18229;DHT22;9239;50.932;3.142;2023-03-14T02:18:54;10.30;99.90
18229;DHT22;9239;50.932;3.142;2023-03-14T02:21:25;10.30;99.90
18229;DHT22;9239;50.932;3.142;2023-03-14T02:24:02;10.30;99.90
18229;DHT22;9239;50.932;3.142;2023-03-14T02:26:34;10.20;99.90
18229;DHT22;9239;50.932;3.142;2023-03-14T02:29:04;10.20;99.90
18229;DHT22;9239;50.932;3.142;2023-03-14T02:31:31;10.10;99.90
18229;DHT22;9239;50.932;3.142;2023-03-14T02:34:00;10.10;99.90
18229;DHT22;9239;50.932;3.142;2023-03-14T02:36:27;10.10;99.90
18229;DHT22;9239;50.932;3.142;2023-03-14T02:39:00;10.10;99.90
18229;DHT22;9239;50.932;3.142;2023-03-14T02:41:30;10.00;99.90
18229;DHT22;9239;50.932;3.142;2023-03-14T02:43:57;10.10;99.90
18229;DHT22;9239;50.932;3.142;2023-03-14T02:46:25;10.10;99.90
18229;DHT22;9239;50.932;3.142;2023-03-14T02:48:55;10.10;99.90
18229;DHT22;9239;50.932;3.142;2023-03-14T02:51:24;10.10;99.90
18229;DHT22;9239;50.932;3.142;2023-03-14T02:53:52;10.00;99.90
18229;DHT22;9239;50.932;3.142;2023-03-14T02:56:19;10.10;99.90
18229;DHT22;9239;50.932;3.142;2023-03-14T02:58:46;10.10;99.90
18229;DHT22;9239;50.932;3.142;2023-03-14T03:01:13;10.10;99.90
18229;DHT22;9239;50.932;3.142;2023-03-14T03:03:42;10.10;99.90
18229;DHT22;9239;50.932;3.142;2023-03-14T03:06:09;10.10;99.90
18229;DHT22;9239;50.932;3.142;2023-03-14T03:08:36;10.20;99.90
18229;DHT22;9239;50.932;3.142;2023-03-14T03:11:03;10.20;99.90
18229;DHT22;9239;50.932;3.142;2023-03-14T03:13:30;10.20;99.90
18229;DHT22;9239;50.932;3.142;2023-03-14T03:15:57;10.20;99.90
18229;DHT22;9239;50.932;3.142;2023-03-14T03:18:24;10.20;99.90
18229;DHT22;9239;50.932;3.142;2023-03-14T03:20:53;10.20;99.90
18229;DHT22;9239;50.932;3.142;2023-03-14T03:23:20;10.20;99.90
18229;DHT22;9239;50.932;3.142;2023-03-14T03:25:50;10.20;99.90
18229;DHT22;9239;50.932;3.142;2023-03-14T03:28:18;10.30;99.90
18229;DHT22;9239;50.932;3.142;2023-03-14T03:30:45;10.30;99.90
18229;DHT22;9239;50.932;3.142;2023-03-14T03:33:12;10.30;99.90
18229;DHT22;9239;50.932;3.142;2023-03-14T03:35:43;10.20;99.90
18229;DHT22;9239;50.932;3.142;2023-03-14T03:38:12;10.30;99.90
18229;DHT22;9239;50.932;3.142;2023-03-14T03:40:39;10.30;99.90
18229;DHT22;9239;50.932;3.142;2023-03-14T03:43:06;10.20;99.90
18229;DHT22;9239;50.932;3.142;2023-03-14T03:45:33;10.20;99.90
18229;DHT22;9239;50.932;3.142;2023-03-14T03:48:00;10.20;99.90
18229;DHT22;9239;50.932;3.142;2023-03-14T03:50:27;10.20;99.90
18229;DHT22;9239;50.932;3.142;2023-03-14T03:52:54;10.20;99.90
18229;DHT22;9239;50.932;3.142;2023-03-14T03:55:22;10.20;99.90
18229;DHT22;9239;50.932;3.142;2023-03-14T03:57:51;10.20;99.90
18229;DHT22;9239;50.932;3.142;2023-03-14T04:00:18;10.20;99.90
18229;DHT22;9239;50.932;3.142;2023-03-14T04:02:44;10.20;99.90
18229;DHT22;9239;50.932;3.142;2023-03-14T04:05:11;10.20;99.90
18229;DHT22;9239;50.932;3.142;2023-03-14T04:07:38;10.20;99.90
18229;DHT22;9239;50.932;3.142;2023-03-14T04:10:05;10.30;99.90
18229;DHT22;9239;50.932;3.142;2023-03-14T04:12:33;10.30;99.90
18229;DHT22;9239;50.932;3.142;2023-03-14T04:15:00;10.40;99.90
18229;DHT22;9239;50.932;3.142;2023-03-14T04:17:27;10.40;99.90
18229;DHT22;9239;50.932;3.142;2023-03-14T04:19:54;10.40;99.90
18229;DHT22;9239;50.932;3.142;2023-03-14T04:22:21;10.50;99.90
18229;DHT22;9239;50.932;3.142;2023-03-14T04:24:48;10.50;99.90
18229;DHT22;9239;50.932;3.142;2023-03-14T04:27:15;10.50;99.90
18229;DHT22;9239;50.932;3.142;2023-03-14T04:29:43;10.50;99.90
18229;DHT22;9239;50.932;3.142;2023-03-14T04:32:10;10.50;99.90
18229;DHT22;9239;50.932;3.142;2023-03-14T04:34:37;10.50;99.90
18229;DHT22;9239;50.932;3.142;2023-03-14T04:37:04;10.50;99.90
18229;DHT22;9239;50.932;3.142;2023-03-14T04:39:31;10.50;99.90
18229;DHT22;9239;50.932;3.142;2023-03-14T04:41:58;10.50;99.90
18229;DHT22;9239;50.932;3.142;2023-03-14T04:44:25;10.40;99.90
18229;DHT22;9239;50.932;3.142;2023-03-14T04:46:53;10.40;99.90
18229;DHT22;9239;50.932;3.142;2023-03-14T04:49:20;10.30;99.90
18229;DHT22;9239;50.932;3.142;2023-03-14T04:51:47;10.30;99.90
18229;DHT22;9239;50.932;3.142;2023-03-14T04:54:16;10.20;99.90
18229;DHT22;9239;50.932;3.142;2023-03-14T04:56:43;10.20;99.90
18229;DHT22;9239;50.932;3.142;2023-03-14T04:59:09;10.10;99.90
18229;DHT22;9239;50.932;3.142;2023-03-14T05:01:36;10.10;99.90
18229;DHT22;9239;50.932;3.142;2023-03-14T05:04:04;10.10;99.90
18229;DHT22;9239;50.932;3.142;2023-03-14T05:06:31;10.10;99.90
18229;DHT22;9239;50.932;3.142;2023-03-14T05:08:58;10.10;99.90
18229;DHT22;9239;50.932;3.142;2023-03-14T05:11:25;10.00;99.90
18229;DHT22;9239;50.932;3.142;2023-03-14T05:13:52;10.00;99.90
18229;DHT22;9239;50.932;3.142;2023-03-14T05:16:19;9.40;99.90
18229;DHT22;9239;50.932;3.142;2023-03-14T05:18:46;8.70;99.90
18229;DHT22;9239;50.932;3.142;2023-03-14T05:21:15;8.30;99.90
18229;DHT22;9239;50.932;3.142;2023-03-14T05:23:41;8.10;99.90
18229;DHT22;9239;50.932;3.142;2023-03-14T05:26:08;7.90;99.90
18229;DHT22;9239;50.932;3.142;2023-03-14T05:28:35;7.90;99.90
18229;DHT22;9239;50.932;3.142;2023-03-14T05:31:06;7.80;99.90
18229;DHT22;9239;50.932;3.142;2023-03-14T05:33:33;7.80;99.90
18229;DHT22;9239;50.932;3.142;2023-03-14T05:36:00;7.70;99.90
18229;DHT22;9239;50.932;3.142;2023-03-14T05:38:28;7.70;99.90
18229;DHT22;9239;50.932;3.142;2023-03-14T05:40:55;7.70;99.90
18229;DHT22;9239;50.932;3.142;2023-03-14T05:43:22;7.60;99.90
18229;DHT22;9239;50.932;3.142;2023-03-14T05:45:49;7.60;99.90
18229;DHT22;9239;50.932;3.142;2023-03-14T05:48:16;7.60;99.90
18229;DHT22;9239;50.932;3.142;2023-03-14T05:50:43;7.60;99.90
18229;DHT22;9239;50.932;3.142;2023-03-14T05:53:11;7.60;99.90
18229;DHT22;9239;50.932;3.142;2023-03-14T05:55:39;7.60;99.90
18229;DHT22;9239;50.932;3.142;2023-03-14T05:58:06;7.60;99.90
18229;DHT22;9239;50.932;3.142;2023-03-14T06:00:33;7.50;99.90
18229;DHT22;9239;50.932;3.142;2023-03-14T06:03:00;7.50;99.90
18229;DHT22;9239;50.932;3.142;2023-03-14T06:05:27;7.50;99.90
18229;DHT22;9239;50.932;3.142;2023-03-14T06:07:54;7.50;99.90
18229;DHT22;9239;50.932;3.142;2023-03-14T06:10:20;7.50;99.90
18229;DHT22;9239;50.932;3.142;2023-03-14T06:12:49;7.50;99.90
18229;DHT22;9239;50.932;3.142;2023-03-14T06:15:15;7.50;99.90
18229;DHT22;9239;50.932;3.142;2023-03-14T06:17:42;7.50;99.90
18229;DHT22;9239;50.932;3.142;2023-03-14T06:20:10;7.50;99.90
18229;DHT22;9239;50.932;3.142;2023-03-14T06:22:37;7.50;99.90
18229;DHT22;9239;50.932;3.142;2023-03-14T06:25:05;7.50;99.90
18229;DHT22;9239;50.932;3.142;2023-03-14T06:27:33;7.50;99.90
18229;DHT22;9239;50.932;3.142;2023-03-14T06:30:01;7.50;99.90
18229;DHT22;9239;50.932;3.142;2023-03-14T06:32:28;7.50;99.90
18229;DHT22;9239;50.932;3.142;2023-03-14T06:34:55;7.40;99.90
18229;DHT22;9239;50.932;3.142;2023-03-14T06:37:26;7.40;99.90
18229;DHT22;9239;50.932;3.142;2023-03-14T06:39:53;7.30;99.90
18229;DHT22;9239;50.932;3.142;2023-03-14T06:42:21;7.30;99.90
18229;DHT22;9239;50.932;3.142;2023-03-14T06:44:48;7.20;99.90
18229;DHT22;9239;50.932;3.142;2023-03-14T06:47:16;7.10;99.90
18229;DHT22;9239;50.932;3.142;2023-03-14T06:49:43;7.10;99.90
18229;DHT22;9239;50.932;3.142;2023-03-14T06:52:16;7.10;99.90
18229;DHT22;9239;50.932;3.142;2023-03-14T06:54:43;7.00;99.90
18229;DHT22;9239;50.932;3.142;2023-03-14T06:57:10;7.00;99.90
18229;DHT22;9239;50.932;3.142;2023-03-14T06:59:37;6.90;99.90
18229;DHT22;9239;50.932;3.142;2023-03-14T07:02:03;7.00;99.90
18229;DHT22;9239;50.932;3.142;2023-03-14T07:04:32;7.00;99.90
18229;DHT22;9239;50.932;3.142;2023-03-14T07:06:59;7.00;99.90
18229;DHT22;9239;50.932;3.142;2023-03-14T07:09:25;7.00;99.90
18229;DHT22;9239;50.932;3.142;2023-03-14T07:11:52;7.00;99.90
18229;DHT22;9239;50.932;3.142;2023-03-14T07:14:19;7.00;99.90
18229;DHT22;9239;50.932;3.142;2023-03-14T07:16:46;7.00;99.90
18229;DHT22;9239;50.932;3.142;2023-03-14T07:19:13;7.00;99.90
18229;DHT22;9239;50.932;3.142;2023-03-14T07:21:41;7.00;99.90
18229;DHT22;9239;50.932;3.142;2023-03-14T07:24:08;7.00;99.90
18229;DHT22;9239;50.932;3.142;2023-03-14T07:26:35;6.90;99.90
18229;DHT22;9239;50.932;3.142;2023-03-14T07:29:02;6.90;99.90
18229;DHT22;9239;50.932;3.142;2023-03-14T07:31:29;6.90;99.90
18229;DHT22;9239;50.932;3.142;2023-03-14T07:33:56;6.90;99.90
18229;DHT22;9239;50.932;3.142;2023-03-14T07:36:23;6.90;99.90
18229;DHT22;9239;50.932;3.142;2023-03-14T07:38:51;6.90;99.90
18229;DHT22;9239;50.932;3.142;2023-03-14T07:41:18;6.90;99.90
18229;DHT22;9239;50.932;3.142;2023-03-14T07:43:46;6.90;99.90
18229;DHT22;9239;50.932;3.142;2023-03-14T07:46:13;6.90;99.90
18229;DHT22;9239;50.932;3.142;2023-03-14T07:48:39;6.90;99.90
18229;DHT22;9239;50.932;3.142;2023-03-14T07:51:07;6.90;99.90
18229;DHT22;9239;50.932;3.142;2023-03-14T07:53:34;6.90;99.90
18229;DHT22;9239;50.932;3.142;2023-03-14T07:56:02;6.90;99.90
18229;DHT22;9239;50.932;3.142;2023-03-14T07:58:29;7.00;99.90
18229;DHT22;9239;50.932;3.142;2023-03-14T08:00:58;7.00;99.90
18229;DHT22;9239;50.932;3.142;2023-03-14T08:03:25;7.00;99.90
18229;DHT22;9239;50.932;3.142;2023-03-14T08:05:52;6.90;99.90
18229;DHT22;9239;50.932;3.142;2023-03-14T08:08:19;6.90;99.90
18229;DHT22;9239;50.932;3.142;2023-03-14T08:10:46;6.90;99.90
18229;DHT22;9239;50.932;3.142;2023-03-14T08:13:14;6.90;99.90
18229;DHT22;9239;50.932;3.142;2023-03-14T08:15:41;6.90;99.90
18229;DHT22;9239;50.932;3.142;2023-03-14T08:18:08;7.00;99.90
18229;DHT22;9239;50.932;3.142;2023-03-14T08:20:35;7.10;99.90
18229;DHT22;9239;50.932;3.142;2023-03-14T08:23:02;7.10;99.90
18229;DHT22;9239;50.932;3.142;2023-03-14T08:25:29;7.10;99.90
18229;DHT22;9239;50.932;3.142;2023-03-14T08:27:57;7.10;99.90
18229;DHT22;9239;50.932;3.142;2023-03-14T08:30:25;7.10;99.90
18229;DHT22;9239;50.932;3.142;2023-03-14T08:32:52;7.10;99.90
18229;DHT22;9239;50.932;3.142;2023-03-14T08:35:19;7.10;99.90
18229;DHT22;9239;50.932;3.142;2023-03-14T08:37:46;7.20;99.90
18229;DHT22;9239;50.932;3.142;2023-03-14T08:40:13;7.20;99.90
18229;DHT22;9239;50.932;3.142;2023-03-14T08:42:42;7.20;99.90
18229;DHT22;9239;50.932;3.142;2023-03-14T08:45:12;7.30;99.90
18229;DHT22;9239;50.932;3.142;2023-03-14T08:47:40;7.30;99.90
18229;DHT22;9239;50.932;3.142;2023-03-14T08:50:08;7.40;99.90
18229;DHT22;9239;50.932;3.142;2023-03-14T08:52:35;7.50;99.90
18229;DHT22;9239;50.932;3.142;2023-03-14T08:55:03;7.50;99.90
18229;DHT22;9239;50.932;3.142;2023-03-14T08:57:30;7.50;99.90
18229;DHT22;9239;50.932;3.142;2023-03-14T08:59:58;7.40;99.90
18229;DHT22;9239;50.932;3.142;2023-03-14T09:02:25;7.50;99.90
18229;DHT22;9239;50.932;3.142;2023-03-14T09:04:54;7.50;99.90
18229;DHT22;9239;50.932;3.142;2023-03-14T09:07:20;7.50;99.90
18229;DHT22;9239;50.932;3.142;2023-03-14T09:09:47;7.50;99.90
18229;DHT22;9239;50.932;3.142;2023-03-14T09:12:14;7.50;99.90
18229;DHT22;9239;50.932;3.142;2023-03-14T09:14:41;7.50;99.90
18229;DHT22;9239;50.932;3.142;2023-03-14T09:17:08;7.60;99.90
18229;DHT22;9239;50.932;3.142;2023-03-14T09:19:35;7.60;99.90
18229;DHT22;9239;50.932;3.142;2023-03-14T09:22:03;7.80;99.90
18229;DHT22;9239;50.932;3.142;2023-03-14T09:24:30;7.90;99.90
18229;DHT22;9239;50.932;3.142;2023-03-14T09:26:57;8.00;99.90
18229;DHT22;9239;50.932;3.142;2023-03-14T09:29:24;8.00;99.90
18229;DHT22;9239;50.932;3.142;2023-03-14T09:31:51;8.00;99.90
18229;DHT22;9239;50.932;3.142;2023-03-14T09:34:18;7.90;99.90
18229;DHT22;9239;50.932;3.142;2023-03-14T09:36:46;7.90;99.90
18229;DHT22;9239;50.932;3.142;2023-03-14T09:39:14;7.90;99.90
18229;DHT22;9239;50.932;3.142;2023-03-14T09:41:44;7.90;99.90
18229;DHT22;9239;50.932;3.142;2023-03-14T09:44:15;8.00;99.90
18229;DHT22;9239;50.932;3.142;2023-03-14T09:46:45;8.10;99.90
18229;DHT22;9239;50.932;3.142;2023-03-14T09:49:19;8.00;99.90
18229;DHT22;9239;50.932;3.142;2023-03-14T09:51:49;7.90;99.90
18229;DHT22;9239;50.932;3.142;2023-03-14T09:54:30;7.70;99.90
18229;DHT22;9239;50.932;3.142;2023-03-14T09:56:57;7.70;99.90
18229;DHT22;9239;50.932;3.142;2023-03-14T09:59:25;7.60;99.90
18229;DHT22;9239;50.932;3.142;2023-03-14T10:01:53;7.50;99.90
18229;DHT22;9239;50.932;3.142;2023-03-14T10:04:22;7.50;99.90
18229;DHT22;9239;50.932;3.142;2023-03-14T10:06:49;7.50;99.90
18229;DHT22;9239;50.932;3.142;2023-03-14T10:09:21;7.50;99.90
18229;DHT22;9239;50.932;3.142;2023-03-14T10:11:55;7.20;99.90
18229;DHT22;9239;50.932;3.142;2023-03-14T10:14:30;7.10;99.90
18229;DHT22;9239;50.932;3.142;2023-03-14T10:17:05;7.10;99.90
18229;DHT22;9239;50.932;3.142;2023-03-14T10:19:33;7.00;99.90
18229;DHT22;9239;50.932;3.142;2023-03-14T10:22:02;6.90;99.90
18229;DHT22;9239;50.932;3.142;2023-03-14T10:24:33;6.70;99.90
18229;DHT22;9239;50.932;3.142;2023-03-14T10:27:02;6.60;99.90
18229;DHT22;9239;50.932;3.142;2023-03-14T10:29:30;6.50;99.90
18229;DHT22;9239;50.932;3.142;2023-03-14T10:31:59;6.30;99.90
18229;DHT22;9239;50.932;3.142;2023-03-14T10:34:29;6.30;99.90
18229;DHT22;9239;50.932;3.142;2023-03-14T10:36:58;6.20;99.90
18229;DHT22;9239;50.932;3.142;2023-03-14T10:39:29;6.20;99.90
18229;DHT22;9239;50.932;3.142;2023-03-14T10:42:05;6.10;99.90
18229;DHT22;9239;50.932;3.142;2023-03-14T10:44:34;6.10;99.90
18229;DHT22;9239;50.932;3.142;2023-03-14T10:47:03;6.20;99.90
18229;DHT22;9239;50.932;3.142;2023-03-14T10:49:32;6.20;99.90
18229;DHT22;9239;50.932;3.142;2023-03-14T10:52:13;6.20;99.90
18229;DHT22;9239;50.932;3.142;2023-03-14T10:54:41;6.20;99.90
18229;DHT22;9239;50.932;3.142;2023-03-14T10:57:14;6.20;99.90
18229;DHT22;9239;50.932;3.142;2023-03-14T10:59:42;6.20;99.90
18229;DHT22;9239;50.932;3.142;2023-03-14T11:02:31;6.20;99.90
18229;DHT22;9239;50.932;3.142;2023-03-14T11:05:08;6.10;99.90
18229;DHT22;9239;50.932;3.142;2023-03-14T11:07:40;6.00;99.90
18229;DHT22;9239;50.932;3.142;2023-03-14T11:10:16;5.80;99.90
18229;DHT22;9239;50.932;3.142;2023-03-14T11:12:55;5.70;99.90
18229;DHT22;9239;50.932;3.142;2023-03-14T11:15:32;5.60;99.90
18229;DHT22;9239;50.932;3.142;2023-03-14T11:18:24;5.60;99.90
18229;DHT22;9239;50.932;3.142;2023-03-14T11:20:59;5.50;99.90
18229;DHT22;9239;50.932;3.142;2023-03-14T11:23:32;5.50;99.90
18229;DHT22;9239;50.932;3.142;2023-03-14T11:26:14;5.50;99.90
18229;DHT22;9239;50.932;3.142;2023-03-14T11:28:49;5.60;99.90
18229;DHT22;9239;50.932;3.142;2023-03-14T11:31:21;5.60;99.90
18229;DHT22;9239;50.932;3.142;2023-03-14T11:33:56;5.70;99.90
18229;DHT22;9239;50.932;3.142;2023-03-14T11:36:28;5.80;99.90
18229;DHT22;9239;50.932;3.142;2023-03-14T11:38:58;5.90;99.90
18229;DHT22;9239;50.932;3.142;2023-03-14T11:41:28;6.10;99.90
18229;DHT22;9239;50.932;3.142;2023-03-14T11:43:59;6.20;99.90
18229;DHT22;9239;50.932;3.142;2023-03-14T11:46:31;6.40;99.90
18229;DHT22;9239;50.932;3.142;2023-03-14T11:49:05;6.40;99.90
18229;DHT22;9239;50.932;3.142;2023-03-14T11:51:35;6.50;99.90
18229;DHT22;9239;50.932;3.142;2023-03-14T11:54:11;6.50;99.90
18229;DHT22;9239;50.932;3.142;2023-03-14T11:56:46;6.50;99.90
18229;DHT22;9239;50.932;3.142;2023-03-14T11:59:19;6.50;99.90
18229;DHT22;9239;50.932;3.142;2023-03-14T12:01:54;6.60;99.90
18229;DHT22;9239;50.932;3.142;2023-03-14T12:04:40;6.60;99.90
18229;DHT22;9239;50.932;3.142;2023-03-14T12:07:17;6.60;99.90
18229;DHT22;9239;50.932;3.142;2023-03-14T12:09:45;6.50;99.90
18229;DHT22;9239;50.932;3.142;2023-03-14T12:12:16;6.50;99.90
18229;DHT22;9239;50.932;3.142;2023-03-14T12:14:52;6.30;99.90
18229;DHT22;9239;50.932;3.142;2023-03-14T12:17:21;6.10;99.90
18229;DHT22;9239;50.932;3.142;2023-03-14T12:20:00;6.00;99.90
18229;DHT22;9239;50.932;3.142;2023-03-14T12:22:30;5.80;99.90
18229;DHT22;9239;50.932;3.142;2023-03-14T12:25:06;5.80;99.90
18229;DHT22;9239;50.932;3.142;2023-03-14T12:30:31;5.90;99.90
18229;DHT22;9239;50.932;3.142;2023-03-14T12:33:26;6.00;99.90
18229;DHT22;9239;50.932;3.142;2023-03-14T12:35:59;6.00;99.90
18229;DHT22;9239;50.932;3.142;2023-03-14T12:38:32;6.10;99.90
18229;DHT22;9239;50.932;3.142;2023-03-14T12:41:11;6.10;99.90
18229;DHT22;9239;50.932;3.142;2023-03-14T12:43:39;6.10;99.90
18229;DHT22;9239;50.932;3.142;2023-03-14T12:46:15;6.00;99.90
18229;DHT22;9239;50.932;3.142;2023-03-14T12:48:47;6.00;99.90
18229;DHT22;9239;50.932;3.142;2023-03-14T12:51:16;6.00;99.90
18229;DHT22;9239;50.932;3.142;2023-03-14T12:59:47;5.70;99.90
18229;DHT22;9239;50.932;3.142;2023-03-14T13:02:24;5.50;99.90
18229;DHT22;9239;50.932;3.142;2023-03-14T13:04:59;5.50;99.90
18229;DHT22;9239;50.932;3.142;2023-03-14T13:07:33;5.40;99.90
18229;DHT22;9239;50.932;3.142;2023-03-14T13:10:05;5.40;99.90
18229;DHT22;9239;50.932;3.142;2023-03-14T13:12:47;5.40;99.90
18229;DHT22;9239;50.932;3.142;2023-03-14T13:15:23;5.40;99.90
18229;DHT22;9239;50.932;3.142;2023-03-14T13:17:54;5.50;99.90
18229;DHT22;9239;50.932;3.142;2023-03-14T13:20:26;5.60;99.90
18229;DHT22;9239;50.932;3.142;2023-03-14T13:22:54;5.60;99.90
18229;DHT22;9239;50.932;3.142;2023-03-14T13:25:21;5.70;99.90
18229;DHT22;9239;50.932;3.142;2023-03-14T13:27:49;5.80;99.90
18229;DHT22;9239;50.932;3.142;2023-03-14T13:30:22;5.80;99.90
18229;DHT22;9239;50.932;3.142;2023-03-14T13:32:52;5.80;99.90
18229;DHT22;9239;50.932;3.142;2023-03-14T13:35:24;5.80;99.90
18229;DHT22;9239;50.932;3.142;2023-03-14T13:37:54;5.80;99.90
18229;DHT22;9239;50.932;3.142;2023-03-14T13:40:25;5.80;99.90
18229;DHT22;9239;50.932;3.142;2023-03-14T13:43:04;5.80;99.90
18229;DHT22;9239;50.932;3.142;2023-03-14T13:45:43;5.80;99.90
18229;DHT22;9239;50.932;3.142;2023-03-14T13:48:12;5.60;99.90
18229;DHT22;9239;50.932;3.142;2023-03-14T13:50:46;5.50;99.90
18229;DHT22;9239;50.932;3.142;2023-03-14T13:53:13;5.50;99.90
18229;DHT22;9239;50.932;3.142;2023-03-14T13:55:39;5.50;99.90
18229;DHT22;9239;50.932;3.142;2023-03-14T13:58:22;5.40;99.90
18229;DHT22;9239;50.932;3.142;2023-03-14T14:01:01;5.20;99.90
18229;DHT22;9239;50.932;3.142;2023-03-14T14:03:33;5.00;99.90
18229;DHT22;9239;50.932;3.142;2023-03-14T14:06:00;4.90;99.90
18229;DHT22;9239;50.932;3.142;2023-03-14T14:08:27;4.70;99.90
18229;DHT22;9239;50.932;3.142;2023-03-14T14:10:57;4.70;99.90
18229;DHT22;9239;50.932;3.142;2023-03-14T14:13:27;4.70;99.90
18229;DHT22;9239;50.932;3.142;2023-03-14T14:15:56;4.80;99.90
18229;DHT22;9239;50.932;3.142;2023-03-14T14:18:26;4.80;99.90
18229;DHT22;9239;50.932;3.142;2023-03-14T14:20:56;4.90;99.90
18229;DHT22;9239;50.932;3.142;2023-03-14T14:23:26;4.90;99.90
18229;DHT22;9239;50.932;3.142;2023-03-14T14:25:54;5.00;99.90
18229;DHT22;9239;50.932;3.142;2023-03-14T14:28:25;5.10;99.90
18229;DHT22;9239;50.932;3.142;2023-03-14T14:31:01;5.10;99.90
18229;DHT22;9239;50.932;3.142;2023-03-14T14:33:28;5.20;99.90
18229;DHT22;9239;50.932;3.142;2023-03-14T14:35:58;5.30;99.90
18229;DHT22;9239;50.932;3.142;2023-03-14T14:38:26;5.30;99.90
18229;DHT22;9239;50.932;3.142;2023-03-14T14:40:56;5.40;99.90
18229;DHT22;9239;50.932;3.142;2023-03-14T14:43:27;5.50;99.90
18229;DHT22;9239;50.932;3.142;2023-03-14T14:45:55;5.50;99.90
18229;DHT22;9239;50.932;3.142;2023-03-14T14:48:24;5.50;99.90
18229;DHT22;9239;50.932;3.142;2023-03-14T14:50:59;5.50;99.90
18229;DHT22;9239;50.932;3.142;2023-03-14T14:53:29;5.50;99.90
18229;DHT22;9239;50.932;3.142;2023-03-14T14:55:58;5.60;99.90
18229;DHT22;9239;50.932;3.142;2023-03-14T14:58:27;5.50;99.90
18229;DHT22;9239;50.932;3.142;2023-03-14T15:00:57;5.60;99.90
18229;DHT22;9239;50.932;3.142;2023-03-14T15:03:28;5.60;99.90
18229;DHT22;9239;50.932;3.142;2023-03-14T15:05:57;5.70;99.90
18229;DHT22;9239;50.932;3.142;2023-03-14T15:08:25;5.80;99.90
18229;DHT22;9239;50.932;3.142;2023-03-14T15:10:52;5.90;99.90
18229;DHT22;9239;50.932;3.142;2023-03-14T15:13:19;6.00;99.90
18229;DHT22;9239;50.932;3.142;2023-03-14T15:15:46;6.10;99.90
18229;DHT22;9239;50.932;3.142;2023-03-14T15:18:15;6.20;99.90
18229;DHT22;9239;50.932;3.142;2023-03-14T15:20:42;6.20;99.90
18229;DHT22;9239;50.932;3.142;2023-03-14T15:23:12;6.20;99.90
18229;DHT22;9239;50.932;3.142;2023-03-14T15:25:40;6.30;99.90
18229;DHT22;9239;50.932;3.142;2023-03-14T15:28:18;6.30;99.90
18229;DHT22;9239;50.932;3.142;2023-03-14T15:30:47;6.30;99.90
18229;DHT22;9239;50.932;3.142;2023-03-14T15:33:14;6.40;99.90
18229;DHT22;9239;50.932;3.142;2023-03-14T15:35:41;6.50;99.90
18229;DHT22;9239;50.932;3.142;2023-03-14T15:38:12;6.60;99.90
18229;DHT22;9239;50.932;3.142;2023-03-14T15:40:40;6.50;99.90
18229;DHT22;9239;50.932;3.142;2023-03-14T15:43:07;6.40;99.90
18229;DHT22;9239;50.932;3.142;2023-03-14T15:45:35;6.50;99.90
18229;DHT22;9239;50.932;3.142;2023-03-14T15:48:03;6.60;99.90
18229;DHT22;9239;50.932;3.142;2023-03-14T15:50:31;6.70;99.90
18229;DHT22;9239;50.932;3.142;2023-03-14T15:52:58;6.80;99.90
18229;DHT22;9239;50.932;3.142;2023-03-14T15:55:26;6.90;99.90
18229;DHT22;9239;50.932;3.142;2023-03-14T15:57:53;6.90;99.90
18229;DHT22;9239;50.932;3.142;2023-03-14T16:00:21;6.90;99.90
18229;DHT22;9239;50.932;3.142;2023-03-14T16:02:50;6.80;99.90
18229;DHT22;9239;50.932;3.142;2023-03-14T16:05:17;6.90;99.90
18229;DHT22;9239;50.932;3.142;2023-03-14T16:07:45;6.90;99.90
18229;DHT22;9239;50.932;3.142;2023-03-14T16:10:13;6.80;99.90
18229;DHT22;9239;50.932;3.142;2023-03-14T16:12:42;6.90;99.90
18229;DHT22;9239;50.932;3.142;2023-03-14T16:15:10;7.00;99.90
18229;DHT22;9239;50.932;3.142;2023-03-14T16:17:37;7.20;99.90